sensor_id;sensor_type;location;lat;lon;timestamp;temperature;humidity
6098;DHT22;3077;50.922;6.584;2022-08-14T00:02:04;24.00;21.50
6098;DHT22;3077;50.922;6.584;2022-08-14T00:04:34;24.00;21.60
6098;DHT22;3077;50.922;6.584;2022-08-14T00:07:00;24.00;21.60
6098;DHT22;3077;50.922;6.584;2022-08-14T00:09:25;24.00;21.90
6098;DHT22;3077;50.922;6.584;2022-08-14T00:11:51;24.00;22.00
6098;DHT22;3077;50.922;6.584;2022-08-14T00:14:17;23.90;21.40
6098;DHT22;3077;50.922;6.584;2022-08-14T00:16:43;23.70;21.40
6098;DHT22;3077;50.922;6.584;2022-08-14T00:19:09;23.60;21.70
6098;DHT22;3077;50.922;6.584;2022-08-14T00:21:34;23.40;22.00
6098;DHT22;3077;50.922;6.584;2022-08-14T00:24:01;23.20;22.60
6098;DHT22;3077;50.922;6.584;2022-08-14T00:26:28;22.90;23.40
6098;DHT22;3077;50.922;6.584;2022-08-14T00:28:54;22.90;23.90
6098;DHT22;3077;50.922;6.584;2022-08-14T00:31:20;22.90;24.40
6098;DHT22;3077;50.922;6.584;2022-08-14T00:33:46;22.90;25.00
6098;DHT22;3077;50.922;6.584;2022-08-14T00:36:12;22.80;25.20
6098;DHT22;3077;50.922;6.584;2022-08-14T00:38:37;22.80;25.60
6098;DHT22;3077;50.922;6.584;2022-08-14T00:41:05;22.70;25.70
6098;DHT22;3077;50.922;6.584;2022-08-14T00:43:32;22.60;26.10
6098;DHT22;3077;50.922;6.584;2022-08-14T00:46:08;22.50;26.70
6098;DHT22;3077;50.922;6.584;2022-08-14T00:48:35;22.40;27.30
6098;DHT22;3077;50.922;6.584;2022-08-14T00:51:02;22.50;27.70
6098;DHT22;3077;50.922;6.584;2022-08-14T00:53:28;22.50;28.20
6098;DHT22;3077;50.922;6.584;2022-08-14T00:55:54;22.50;28.60
6098;DHT22;3077;50.922;6.584;2022-08-14T00:58:22;22.50;28.70
6098;DHT22;3077;50.922;6.584;2022-08-14T01:01:06;22.40;28.90
6098;DHT22;3077;50.922;6.584;2022-08-14T01:03:34;22.50;29.50
6098;DHT22;3077;50.922;6.584;2022-08-14T01:06:02;22.50;30.00
6098;DHT22;3077;50.922;6.584;2022-08-14T01:08:30;22.40;30.30
6098;DHT22;3077;50.922;6.584;2022-08-14T01:10:57;22.30;30.70
6098;DHT22;3077;50.922;6.584;2022-08-14T01:13:35;22.30;31.30
6098;DHT22;3077;50.922;6.584;2022-08-14T01:16:04;22.30;31.90
6098;DHT22;3077;50.922;6.584;2022-08-14T01:18:31;22.30;32.40
6098;DHT22;3077;50.922;6.584;2022-08-14T01:21:24;22.30;33.20
6098;DHT22;3077;50.922;6.584;2022-08-14T01:23:55;22.40;34.20
6098;DHT22;3077;50.922;6.584;2022-08-14T01:26:22;22.30;34.20
6098;DHT22;3077;50.922;6.584;2022-08-14T01:28:51;22.30;34.70
6098;DHT22;3077;50.922;6.584;2022-08-14T01:31:22;22.30;34.70
6098;DHT22;3077;50.922;6.584;2022-08-14T01:33:50;22.20;35.20
6098;DHT22;3077;50.922;6.584;2022-08-14T01:36:18;22.20;36.00
6098;DHT22;3077;50.922;6.584;2022-08-14T01:38:49;22.20;36.90
6098;DHT22;3077;50.922;6.584;2022-08-14T01:41:19;22.10;37.20
6098;DHT22;3077;50.922;6.584;2022-08-14T01:43:49;22.10;38.40
6098;DHT22;3077;50.922;6.584;2022-08-14T01:46:17;22.10;39.50
6098;DHT22;3077;50.922;6.584;2022-08-14T01:48:44;22.00;40.20
6098;DHT22;3077;50.922;6.584;2022-08-14T01:51:12;21.90;40.60
6098;DHT22;3077;50.922;6.584;2022-08-14T01:53:43;21.90;41.70
6098;DHT22;3077;50.922;6.584;2022-08-14T01:56:10;21.90;42.90
6098;DHT22;3077;50.922;6.584;2022-08-14T01:58:36;21.80;45.20
6098;DHT22;3077;50.922;6.584;2022-08-14T02:01:03;21.70;46.90
6098;DHT22;3077;50.922;6.584;2022-08-14T02:03:30;21.80;47.70
6098;DHT22;3077;50.922;6.584;2022-08-14T02:05:57;21.80;49.00
6098;DHT22;3077;50.922;6.584;2022-08-14T02:08:25;21.80;50.10
6098;DHT22;3077;50.922;6.584;2022-08-14T02:10:52;21.70;52.10
6098;DHT22;3077;50.922;6.584;2022-08-14T02:13:38;21.70;54.80
6098;DHT22;3077;50.922;6.584;2022-08-14T02:16:05;21.70;55.00
6098;DHT22;3077;50.922;6.584;2022-08-14T02:18:31;21.60;57.00
6098;DHT22;3077;50.922;6.584;2022-08-14T02:20:57;21.60;59.40
6098;DHT22;3077;50.922;6.584;2022-08-14T02:23:23;21.50;60.70
6098;DHT22;3077;50.922;6.584;2022-08-14T02:25:49;21.60;63.20
6098;DHT22;3077;50.922;6.584;2022-08-14T02:28:15;21.50;62.80
6098;DHT22;3077;50.922;6.584;2022-08-14T02:30:40;21.50;65.20
6098;DHT22;3077;50.922;6.584;2022-08-14T02:33:06;21.40;65.90
6098;DHT22;3077;50.922;6.584;2022-08-14T02:35:32;21.40;65.10
6098;DHT22;3077;50.922;6.584;2022-08-14T02:37:58;21.40;65.10
6098;DHT22;3077;50.922;6.584;2022-08-14T02:40:23;21.40;68.00
6098;DHT22;3077;50.922;6.584;2022-08-14T02:42:50;21.30;71.40
6098;DHT22;3077;50.922;6.584;2022-08-14T02:45:15;21.40;71.50
6098;DHT22;3077;50.922;6.584;2022-08-14T02:47:41;21.40;76.10
6098;DHT22;3077;50.922;6.584;2022-08-14T02:50:07;21.40;82.50
6098;DHT22;3077;50.922;6.584;2022-08-14T02:52:32;21.30;83.50
6098;DHT22;3077;50.922;6.584;2022-08-14T02:54:59;21.30;85.00
6098;DHT22;3077;50.922;6.584;2022-08-14T02:57:26;21.30;89.60
6098;DHT22;3077;50.922;6.584;2022-08-14T02:59:52;21.30;90.20
6098;DHT22;3077;50.922;6.584;2022-08-14T03:02:18;21.30;91.60
6098;DHT22;3077;50.922;6.584;2022-08-14T03:04:44;21.40;91.60
6098;DHT22;3077;50.922;6.584;2022-08-14T03:07:10;21.40;92.10
6098;DHT22;3077;50.922;6.584;2022-08-14T03:09:37;21.40;92.70
6098;DHT22;3077;50.922;6.584;2022-08-14T03:12:04;21.40;93.30
6098;DHT22;3077;50.922;6.584;2022-08-14T03:14:30;21.40;94.30
6098;DHT22;3077;50.922;6.584;2022-08-14T03:17:00;21.40;94.70
6098;DHT22;3077;50.922;6.584;2022-08-14T03:19:25;21.40;94.60
6098;DHT22;3077;50.922;6.584;2022-08-14T03:21:51;21.40;95.50
6098;DHT22;3077;50.922;6.584;2022-08-14T03:24:18;21.40;96.00
6098;DHT22;3077;50.922;6.584;2022-08-14T03:26:46;21.40;96.70
6098;DHT22;3077;50.922;6.584;2022-08-14T03:29:15;21.40;97.20
6098;DHT22;3077;50.922;6.584;2022-08-14T03:31:45;21.40;97.20
6098;DHT22;3077;50.922;6.584;2022-08-14T03:34:13;21.40;96.90
6098;DHT22;3077;50.922;6.584;2022-08-14T03:36:39;21.30;97.50
6098;DHT22;3077;50.922;6.584;2022-08-14T03:39:08;21.20;98.10
6098;DHT22;3077;50.922;6.584;2022-08-14T03:41:34;21.20;98.60
6098;DHT22;3077;50.922;6.584;2022-08-14T03:44:03;21.20;98.70
6098;DHT22;3077;50.922;6.584;2022-08-14T03:46:31;21.10;99.90
6098;DHT22;3077;50.922;6.584;2022-08-14T03:48:58;21.00;99.90
6098;DHT22;3077;50.922;6.584;2022-08-14T03:51:25;20.80;99.90
6098;DHT22;3077;50.922;6.584;2022-08-14T03:53:57;20.70;99.90
6098;DHT22;3077;50.922;6.584;2022-08-14T03:56:23;20.60;99.90
6098;DHT22;3077;50.922;6.584;2022-08-14T03:58:53;20.60;99.90
6098;DHT22;3077;50.922;6.584;2022-08-14T04:01:21;20.60;99.90
6098;DHT22;3077;50.922;6.584;2022-08-14T04:03:48;20.50;99.90
6098;DHT22;3077;50.922;6.584;2022-08-14T04:06:15;20.40;99.90
6098;DHT22;3077;50.922;6.584;2022-08-14T04:08:41;20.40;99.90
6098;DHT22;3077;50.922;6.584;2022-08-14T04:11:08;20.30;99.90
6098;DHT22;3077;50.922;6.584;2022-08-14T04:13:39;20.30;99.90
6098;DHT22;3077;50.922;6.584;2022-08-14T04:16:11;20.20;99.90
6098;DHT22;3077;50.922;6.584;2022-08-14T04:18:40;20.10;99.90
6098;DHT22;3077;50.922;6.584;2022-08-14T04:21:06;20.00;99.90
6098;DHT22;3077;50.922;6.584;2022-08-14T04:23:32;20.10;99.90
6098;DHT22;3077;50.922;6.584;2022-08-14T04:26:02;20.10;99.90
6098;DHT22;3077;50.922;6.584;2022-08-14T04:28:28;20.10;99.90
6098;DHT22;3077;50.922;6.584;2022-08-14T04:30:54;20.10;99.90
6098;DHT22;3077;50.922;6.584;2022-08-14T04:33:19;20.00;99.90
6098;DHT22;3077;50.922;6.584;2022-08-14T04:35:48;20.10;99.90
6098;DHT22;3077;50.922;6.584;2022-08-14T04:38:15;20.10;99.90
6098;DHT22;3077;50.922;6.584;2022-08-14T04:41:00;20.10;99.90
6098;DHT22;3077;50.922;6.584;2022-08-14T04:43:44;20.20;99.90
6098;DHT22;3077;50.922;6.584;2022-08-14T04:46:14;20.20;99.90
6098;DHT22;3077;50.922;6.584;2022-08-14T04:48:40;20.20;99.90
6098;DHT22;3077;50.922;6.584;2022-08-14T04:51:09;20.40;99.90
6098;DHT22;3077;50.922;6.584;2022-08-14T04:53:36;20.50;99.90
6098;DHT22;3077;50.922;6.584;2022-08-14T04:56:03;20.50;99.90
6098;DHT22;3077;50.922;6.584;2022-08-14T04:58:31;20.50;99.90
6098;DHT22;3077;50.922;6.584;2022-08-14T05:00:57;20.50;99.90
6098;DHT22;3077;50.922;6.584;2022-08-14T05:03:26;20.60;99.90
6098;DHT22;3077;50.922;6.584;2022-08-14T05:05:54;20.60;99.90
6098;DHT22;3077;50.922;6.584;2022-08-14T05:08:20;20.70;99.90
6098;DHT22;3077;50.922;6.584;2022-08-14T05:10:51;20.80;99.90
6098;DHT22;3077;50.922;6.584;2022-08-14T05:13:18;20.90;99.90
6098;DHT22;3077;50.922;6.584;2022-08-14T05:15:45;20.80;99.90
6098;DHT22;3077;50.922;6.584;2022-08-14T05:18:19;20.80;99.90
6098;DHT22;3077;50.922;6.584;2022-08-14T05:20:47;20.90;99.90
6098;DHT22;3077;50.922;6.584;2022-08-14T05:23:15;21.00;99.90
6098;DHT22;3077;50.922;6.584;2022-08-14T05:25:43;21.10;99.90
6098;DHT22;3077;50.922;6.584;2022-08-14T05:28:10;21.20;99.90
6098;DHT22;3077;50.922;6.584;2022-08-14T05:30:37;21.20;99.90
6098;DHT22;3077;50.922;6.584;2022-08-14T05:33:04;21.30;99.90
6098;DHT22;3077;50.922;6.584;2022-08-14T05:35:30;21.40;99.90
6098;DHT22;3077;50.922;6.584;2022-08-14T05:37:58;21.40;99.90
6098;DHT22;3077;50.922;6.584;2022-08-14T05:40:24;21.40;99.90
6098;DHT22;3077;50.922;6.584;2022-08-14T05:42:51;21.50;99.90
6098;DHT22;3077;50.922;6.584;2022-08-14T05:45:16;21.50;99.90
6098;DHT22;3077;50.922;6.584;2022-08-14T05:47:43;21.60;99.90
6098;DHT22;3077;50.922;6.584;2022-08-14T05:50:10;21.70;99.90
6098;DHT22;3077;50.922;6.584;2022-08-14T05:52:36;21.70;99.90
6098;DHT22;3077;50.922;6.584;2022-08-14T05:55:03;21.70;99.90
6098;DHT22;3077;50.922;6.584;2022-08-14T05:57:29;21.70;99.90
6098;DHT22;3077;50.922;6.584;2022-08-14T05:59:55;21.90;99.90
6098;DHT22;3077;50.922;6.584;2022-08-14T06:02:21;21.90;99.90
6098;DHT22;3077;50.922;6.584;2022-08-14T06:04:46;21.90;99.90
6098;DHT22;3077;50.922;6.584;2022-08-14T06:07:13;22.10;99.90
6098;DHT22;3077;50.922;6.584;2022-08-14T06:09:39;22.20;99.90
6098;DHT22;3077;50.922;6.584;2022-08-14T06:12:09;22.20;99.90
6098;DHT22;3077;50.922;6.584;2022-08-14T06:14:38;22.30;99.90
6098;DHT22;3077;50.922;6.584;2022-08-14T06:17:04;22.40;99.90
6098;DHT22;3077;50.922;6.584;2022-08-14T06:19:30;22.40;99.90
6098;DHT22;3077;50.922;6.584;2022-08-14T06:21:55;22.50;99.90
6098;DHT22;3077;50.922;6.584;2022-08-14T06:24:21;22.70;99.90
6098;DHT22;3077;50.922;6.584;2022-08-14T06:26:46;22.80;99.90
6098;DHT22;3077;50.922;6.584;2022-08-14T06:29:12;22.90;99.90
6098;DHT22;3077;50.922;6.584;2022-08-14T06:31:38;23.00;99.90
6098;DHT22;3077;50.922;6.584;2022-08-14T06:34:03;23.10;99.90
6098;DHT22;3077;50.922;6.584;2022-08-14T06:36:29;23.10;99.90
6098;DHT22;3077;50.922;6.584;2022-08-14T06:38:54;23.20;99.90
6098;DHT22;3077;50.922;6.584;2022-08-14T06:41:20;23.30;99.90
6098;DHT22;3077;50.922;6.584;2022-08-14T06:43:47;23.30;99.90
6098;DHT22;3077;50.922;6.584;2022-08-14T06:46:13;23.40;99.90
6098;DHT22;3077;50.922;6.584;2022-08-14T06:48:39;23.60;99.90
6098;DHT22;3077;50.922;6.584;2022-08-14T06:51:04;23.70;99.90
6098;DHT22;3077;50.922;6.584;2022-08-14T06:53:30;23.80;99.90
6098;DHT22;3077;50.922;6.584;2022-08-14T06:55:55;23.80;99.90
6098;DHT22;3077;50.922;6.584;2022-08-14T06:58:22;23.90;99.90
6098;DHT22;3077;50.922;6.584;2022-08-14T07:00:47;24.10;99.90
6098;DHT22;3077;50.922;6.584;2022-08-14T07:03:32;24.20;99.90
6098;DHT22;3077;50.922;6.584;2022-08-14T07:06:16;24.30;99.90
6098;DHT22;3077;50.922;6.584;2022-08-14T07:08:42;24.40;99.90
6098;DHT22;3077;50.922;6.584;2022-08-14T07:11:09;24.60;99.90
6098;DHT22;3077;50.922;6.584;2022-08-14T07:13:35;24.60;99.90
6098;DHT22;3077;50.922;6.584;2022-08-14T07:16:01;24.80;99.90
6098;DHT22;3077;50.922;6.584;2022-08-14T07:18:28;24.90;99.90
6098;DHT22;3077;50.922;6.584;2022-08-14T07:20:56;25.00;99.90
6098;DHT22;3077;50.922;6.584;2022-08-14T07:23:22;25.10;99.90
6098;DHT22;3077;50.922;6.584;2022-08-14T07:25:49;25.00;99.90
6098;DHT22;3077;50.922;6.584;2022-08-14T07:28:21;25.00;99.90
6098;DHT22;3077;50.922;6.584;2022-08-14T07:30:52;25.10;99.90
6098;DHT22;3077;50.922;6.584;2022-08-14T07:33:23;25.20;99.90
6098;DHT22;3077;50.922;6.584;2022-08-14T07:35:49;25.20;99.90
6098;DHT22;3077;50.922;6.584;2022-08-14T07:38:20;25.30;99.90
6098;DHT22;3077;50.922;6.584;2022-08-14T07:40:46;25.40;99.90
6098;DHT22;3077;50.922;6.584;2022-08-14T07:43:12;25.50;99.90
6098;DHT22;3077;50.922;6.584;2022-08-14T07:45:39;25.60;99.90
6098;DHT22;3077;50.922;6.584;2022-08-14T07:48:05;25.70;99.90
6098;DHT22;3077;50.922;6.584;2022-08-14T07:50:31;25.80;99.90
6098;DHT22;3077;50.922;6.584;2022-08-14T07:52:57;25.90;99.90
6098;DHT22;3077;50.922;6.584;2022-08-14T07:55:25;26.10;99.90
6098;DHT22;3077;50.922;6.584;2022-08-14T07:57:51;26.10;99.90
6098;DHT22;3077;50.922;6.584;2022-08-14T08:00:21;26.20;99.90
6098;DHT22;3077;50.922;6.584;2022-08-14T08:02:49;26.30;99.90
6098;DHT22;3077;50.922;6.584;2022-08-14T08:05:17;26.40;99.90
6098;DHT22;3077;50.922;6.584;2022-08-14T08:07:44;26.50;99.20
6098;DHT22;3077;50.922;6.584;2022-08-14T08:10:17;26.50;98.00
6098;DHT22;3077;50.922;6.584;2022-08-14T08:13:14;26.60;97.70
6098;DHT22;3077;50.922;6.584;2022-08-14T08:15:45;26.60;97.00
6098;DHT22;3077;50.922;6.584;2022-08-14T08:18:12;26.70;97.40
6098;DHT22;3077;50.922;6.584;2022-08-14T08:20:44;26.80;96.70
6098;DHT22;3077;50.922;6.584;2022-08-14T08:23:11;26.90;96.60
6098;DHT22;3077;50.922;6.584;2022-08-14T08:25:40;27.00;95.90
6098;DHT22;3077;50.922;6.584;2022-08-14T08:28:08;27.00;95.70
6098;DHT22;3077;50.922;6.584;2022-08-14T08:30:38;27.20;94.50
6098;DHT22;3077;50.922;6.584;2022-08-14T08:33:05;27.30;92.30
6098;DHT22;3077;50.922;6.584;2022-08-14T08:35:33;27.40;91.60
6098;DHT22;3077;50.922;6.584;2022-08-14T08:38:03;27.40;92.00
6098;DHT22;3077;50.922;6.584;2022-08-14T08:40:33;27.50;90.80
6098;DHT22;3077;50.922;6.584;2022-08-14T08:43:08;27.60;90.80
6098;DHT22;3077;50.922;6.584;2022-08-14T08:45:41;27.80;88.00
6098;DHT22;3077;50.922;6.584;2022-08-14T08:48:06;27.90;88.00
6098;DHT22;3077;50.922;6.584;2022-08-14T08:50:36;28.00;86.50
6098;DHT22;3077;50.922;6.584;2022-08-14T08:53:05;28.10;84.10
6098;DHT22;3077;50.922;6.584;2022-08-14T08:55:39;28.30;82.20
6098;DHT22;3077;50.922;6.584;2022-08-14T08:58:16;28.40;78.10
6098;DHT22;3077;50.922;6.584;2022-08-14T09:00:48;28.50;77.10
6098;DHT22;3077;50.922;6.584;2022-08-14T09:03:16;28.60;72.60
6098;DHT22;3077;50.922;6.584;2022-08-14T09:06:03;28.70;73.40
6098;DHT22;3077;50.922;6.584;2022-08-14T09:08:32;28.90;74.00
6098;DHT22;3077;50.922;6.584;2022-08-14T09:11:03;28.90;71.50
6098;DHT22;3077;50.922;6.584;2022-08-14T09:13:29;29.00;70.40
6098;DHT22;3077;50.922;6.584;2022-08-14T09:15:55;29.10;69.20
6098;DHT22;3077;50.922;6.584;2022-08-14T09:18:22;29.20;64.40
6098;DHT22;3077;50.922;6.584;2022-08-14T09:20:51;29.30;60.30
6098;DHT22;3077;50.922;6.584;2022-08-14T09:23:17;29.50;64.80
6098;DHT22;3077;50.922;6.584;2022-08-14T09:25:45;29.60;63.60
6098;DHT22;3077;50.922;6.584;2022-08-14T09:28:13;29.70;62.00
6098;DHT22;3077;50.922;6.584;2022-08-14T09:30:48;29.80;58.30
6098;DHT22;3077;50.922;6.584;2022-08-14T09:33:37;29.90;57.40
6098;DHT22;3077;50.922;6.584;2022-08-14T09:36:26;30.00;55.70
6098;DHT22;3077;50.922;6.584;2022-08-14T09:39:28;30.10;53.50
6098;DHT22;3077;50.922;6.584;2022-08-14T09:42:34;30.30;50.10
6098;DHT22;3077;50.922;6.584;2022-08-14T09:50:28;30.70;43.00
6098;DHT22;3077;50.922;6.584;2022-08-14T09:53:05;30.80;42.80
6098;DHT22;3077;50.922;6.584;2022-08-14T09:55:32;30.80;39.80
6098;DHT22;3077;50.922;6.584;2022-08-14T10:00:43;31.10;38.30
6098;DHT22;3077;50.922;6.584;2022-08-14T10:03:09;31.00;37.20
6098;DHT22;3077;50.922;6.584;2022-08-14T10:05:36;31.10;33.10
6098;DHT22;3077;50.922;6.584;2022-08-14T10:10:40;31.30;33.80
6098;DHT22;3077;50.922;6.584;2022-08-14T10:13:19;31.60;33.30
6098;DHT22;3077;50.922;6.584;2022-08-14T10:15:45;31.80;31.50
6098;DHT22;3077;50.922;6.584;2022-08-14T10:18:16;31.80;27.80
6098;DHT22;3077;50.922;6.584;2022-08-14T10:20:54;31.90;29.10
6098;DHT22;3077;50.922;6.584;2022-08-14T10:23:23;32.00;30.40
6098;DHT22;3077;50.922;6.584;2022-08-14T10:25:55;32.20;30.00
6098;DHT22;3077;50.922;6.584;2022-08-14T10:28:22;32.50;29.90
6098;DHT22;3077;50.922;6.584;2022-08-14T10:30:49;32.60;30.20
6098;DHT22;3077;50.922;6.584;2022-08-14T10:33:31;32.70;30.20
6098;DHT22;3077;50.922;6.584;2022-08-14T10:35:58;32.90;30.00
6098;DHT22;3077;50.922;6.584;2022-08-14T10:38:31;33.00;27.00
6098;DHT22;3077;50.922;6.584;2022-08-14T10:41:13;33.20;26.30
6098;DHT22;3077;50.922;6.584;2022-08-14T10:43:41;33.20;26.60
6098;DHT22;3077;50.922;6.584;2022-08-14T10:46:17;33.20;24.80
6098;DHT22;3077;50.922;6.584;2022-08-14T10:49:03;33.30;25.40
6098;DHT22;3077;50.922;6.584;2022-08-14T10:51:30;33.50;25.20
6098;DHT22;3077;50.922;6.584;2022-08-14T10:53:57;33.60;24.80
6098;DHT22;3077;50.922;6.584;2022-08-14T10:56:31;33.70;25.10
6098;DHT22;3077;50.922;6.584;2022-08-14T10:59:02;33.80;24.10
6098;DHT22;3077;50.922;6.584;2022-08-14T11:01:37;33.90;24.30
6098;DHT22;3077;50.922;6.584;2022-08-14T11:04:03;34.00;23.00
6098;DHT22;3077;50.922;6.584;2022-08-14T11:06:29;34.20;22.50
6098;DHT22;3077;50.922;6.584;2022-08-14T11:08:56;34.20;22.30
6098;DHT22;3077;50.922;6.584;2022-08-14T11:11:23;34.30;21.70
6098;DHT22;3077;50.922;6.584;2022-08-14T11:13:55;34.20;21.20
6098;DHT22;3077;50.922;6.584;2022-08-14T11:16:23;34.30;21.10
6098;DHT22;3077;50.922;6.584;2022-08-14T11:18:49;34.30;20.30
6098;DHT22;3077;50.922;6.584;2022-08-14T11:21:17;34.40;20.40
6098;DHT22;3077;50.922;6.584;2022-08-14T11:23:46;34.20;19.60
6098;DHT22;3077;50.922;6.584;2022-08-14T11:26:14;34.20;20.60
6098;DHT22;3077;50.922;6.584;2022-08-14T11:28:47;34.30;20.40
6098;DHT22;3077;50.922;6.584;2022-08-14T11:31:14;34.40;19.80
6098;DHT22;3077;50.922;6.584;2022-08-14T11:33:40;34.60;19.80
6098;DHT22;3077;50.922;6.584;2022-08-14T11:36:07;34.90;18.60
6098;DHT22;3077;50.922;6.584;2022-08-14T11:38:43;35.10;18.50
6098;DHT22;3077;50.922;6.584;2022-08-14T11:41:11;35.30;17.60
6098;DHT22;3077;50.922;6.584;2022-08-14T11:43:39;35.40;18.20
6098;DHT22;3077;50.922;6.584;2022-08-14T11:46:05;35.40;17.20
6098;DHT22;3077;50.922;6.584;2022-08-14T11:48:31;35.50;17.50
6098;DHT22;3077;50.922;6.584;2022-08-14T11:50:56;35.60;16.70
6098;DHT22;3077;50.922;6.584;2022-08-14T11:53:25;35.70;16.20
6098;DHT22;3077;50.922;6.584;2022-08-14T11:56:03;35.80;16.80
6098;DHT22;3077;50.922;6.584;2022-08-14T11:58:36;36.10;16.50
6098;DHT22;3077;50.922;6.584;2022-08-14T12:01:04;36.50;16.30
6098;DHT22;3077;50.922;6.584;2022-08-14T12:03:49;37.20;15.70
6098;DHT22;3077;50.922;6.584;2022-08-14T12:06:17;38.00;14.20
6098;DHT22;3077;50.922;6.584;2022-08-14T12:08:43;38.70;13.70
6098;DHT22;3077;50.922;6.584;2022-08-14T12:11:12;39.60;12.40
6098;DHT22;3077;50.922;6.584;2022-08-14T12:13:39;40.30;11.30
6098;DHT22;3077;50.922;6.584;2022-08-14T12:16:07;41.00;10.00
6098;DHT22;3077;50.922;6.584;2022-08-14T12:18:35;41.60;9.40
6098;DHT22;3077;50.922;6.584;2022-08-14T12:21:17;42.20;8.50
6098;DHT22;3077;50.922;6.584;2022-08-14T12:23:48;42.60;8.10
6098;DHT22;3077;50.922;6.584;2022-08-14T12:26:25;42.80;7.20
6098;DHT22;3077;50.922;6.584;2022-08-14T12:29:06;43.30;6.70
6098;DHT22;3077;50.922;6.584;2022-08-14T12:31:32;43.60;5.70
6098;DHT22;3077;50.922;6.584;2022-08-14T12:34:00;43.90;5.70
6098;DHT22;3077;50.922;6.584;2022-08-14T12:36:27;44.20;5.10
6098;DHT22;3077;50.922;6.584;2022-08-14T12:39:16;44.30;4.60
6098;DHT22;3077;50.922;6.584;2022-08-14T12:41:49;44.40;4.40
6098;DHT22;3077;50.922;6.584;2022-08-14T12:44:36;44.70;3.90
6098;DHT22;3077;50.922;6.584;2022-08-14T12:47:07;45.00;4.20
6098;DHT22;3077;50.922;6.584;2022-08-14T12:49:50;44.90;3.70
6098;DHT22;3077;50.922;6.584;2022-08-14T12:52:26;45.20;3.70
6098;DHT22;3077;50.922;6.584;2022-08-14T12:55:01;45.20;3.30
6098;DHT22;3077;50.922;6.584;2022-08-14T12:57:42;44.90;3.30
6098;DHT22;3077;50.922;6.584;2022-08-14T13:00:13;45.00;3.50
6098;DHT22;3077;50.922;6.584;2022-08-14T13:02:48;45.10;3.40
6098;DHT22;3077;50.922;6.584;2022-08-14T13:05:20;45.10;2.90
6098;DHT22;3077;50.922;6.584;2022-08-14T13:07:49;44.50;3.30
6098;DHT22;3077;50.922;6.584;2022-08-14T13:10:18;44.20;3.60
6098;DHT22;3077;50.922;6.584;2022-08-14T13:12:45;44.40;3.90
6098;DHT22;3077;50.922;6.584;2022-08-14T13:15:12;44.80;3.50
6098;DHT22;3077;50.922;6.584;2022-08-14T13:17:55;45.20;2.60
6098;DHT22;3077;50.922;6.584;2022-08-14T13:20:23;45.40;2.30
6098;DHT22;3077;50.922;6.584;2022-08-14T13:22:49;45.90;2.80
6098;DHT22;3077;50.922;6.584;2022-08-14T13:25:21;46.20;1.80
6098;DHT22;3077;50.922;6.584;2022-08-14T13:27:50;46.20;1.30
6098;DHT22;3077;50.922;6.584;2022-08-14T13:30:17;46.30;2.00
6098;DHT22;3077;50.922;6.584;2022-08-14T13:32:46;46.60;1.40
6098;DHT22;3077;50.922;6.584;2022-08-14T13:35:14;46.80;1.10
6098;DHT22;3077;50.922;6.584;2022-08-14T13:37:44;47.00;1.00
6098;DHT22;3077;50.922;6.584;2022-08-14T13:40:12;46.70;1.00
6098;DHT22;3077;50.922;6.584;2022-08-14T13:42:42;45.80;1.00
6098;DHT22;3077;50.922;6.584;2022-08-14T13:45:09;45.60;1.00
6098;DHT22;3077;50.922;6.584;2022-08-14T13:47:36;45.40;1.00
6098;DHT22;3077;50.922;6.584;2022-08-14T13:50:05;45.50;1.30
6098;DHT22;3077;50.922;6.584;2022-08-14T13:52:40;45.60;1.90
6098;DHT22;3077;50.922;6.584;2022-08-14T13:55:07;46.00;2.10
6098;DHT22;3077;50.922;6.584;2022-08-14T13:57:39;46.10;1.30
6098;DHT22;3077;50.922;6.584;2022-08-14T14:00:09;46.10;1.50
6098;DHT22;3077;50.922;6.584;2022-08-14T14:02:38;45.80;1.10
6098;DHT22;3077;50.922;6.584;2022-08-14T14:05:05;45.00;1.20
6098;DHT22;3077;50.922;6.584;2022-08-14T14:07:33;44.60;1.90
6098;DHT22;3077;50.922;6.584;2022-08-14T14:10:05;44.30;2.30
6098;DHT22;3077;50.922;6.584;2022-08-14T14:12:33;44.50;2.30
6098;DHT22;3077;50.922;6.584;2022-08-14T14:15:06;45.10;2.00
6098;DHT22;3077;50.922;6.584;2022-08-14T14:17:34;45.20;1.50
6098;DHT22;3077;50.922;6.584;2022-08-14T14:20:00;44.80;1.80
6098;DHT22;3077;50.922;6.584;2022-08-14T14:22:26;44.70;1.20
6098;DHT22;3077;50.922;6.584;2022-08-14T14:24:52;44.60;1.20
6098;DHT22;3077;50.922;6.584;2022-08-14T14:27:18;44.90;1.70
6098;DHT22;3077;50.922;6.584;2022-08-14T14:29:47;45.30;1.30
6098;DHT22;3077;50.922;6.584;2022-08-14T14:32:15;45.90;1.30
6098;DHT22;3077;50.922;6.584;2022-08-14T14:34:41;46.10;1.10
6098;DHT22;3077;50.922;6.584;2022-08-14T14:37:10;46.30;1.30
6098;DHT22;3077;50.922;6.584;2022-08-14T14:39:37;46.30;1.30
6098;DHT22;3077;50.922;6.584;2022-08-14T14:42:04;46.30;1.00
6098;DHT22;3077;50.922;6.584;2022-08-14T14:44:36;46.00;1.00
6098;DHT22;3077;50.922;6.584;2022-08-14T14:47:13;45.80;1.20
6098;DHT22;3077;50.922;6.584;2022-08-14T14:49:41;45.60;1.30
6098;DHT22;3077;50.922;6.584;2022-08-14T14:52:08;45.70;1.20
6098;DHT22;3077;50.922;6.584;2022-08-14T14:54:34;45.90;1.00
6098;DHT22;3077;50.922;6.584;2022-08-14T14:57:01;45.80;1.00
6098;DHT22;3077;50.922;6.584;2022-08-14T14:59:31;45.80;1.00
6098;DHT22;3077;50.922;6.584;2022-08-14T15:02:02;45.40;1.00
6098;DHT22;3077;50.922;6.584;2022-08-14T15:04:31;45.90;1.00
6098;DHT22;3077;50.922;6.584;2022-08-14T15:06:56;46.00;1.00
6098;DHT22;3077;50.922;6.584;2022-08-14T15:09:22;46.50;1.00
6098;DHT22;3077;50.922;6.584;2022-08-14T15:11:48;46.70;1.00
6098;DHT22;3077;50.922;6.584;2022-08-14T15:14:14;46.90;1.00
6098;DHT22;3077;50.922;6.584;2022-08-14T15:16:40;47.20;1.00
6098;DHT22;3077;50.922;6.584;2022-08-14T15:19:05;47.70;1.00
6098;DHT22;3077;50.922;6.584;2022-08-14T15:21:33;48.40;1.00
6098;DHT22;3077;50.922;6.584;2022-08-14T15:24:01;48.80;1.00
6098;DHT22;3077;50.922;6.584;2022-08-14T15:26:27;49.20;1.00
6098;DHT22;3077;50.922;6.584;2022-08-14T15:28:53;49.50;1.00
6098;DHT22;3077;50.922;6.584;2022-08-14T15:31:18;49.70;1.00
6098;DHT22;3077;50.922;6.584;2022-08-14T15:33:44;50.10;1.00
6098;DHT22;3077;50.922;6.584;2022-08-14T15:36:28;50.20;1.00
6098;DHT22;3077;50.922;6.584;2022-08-14T15:38:55;50.30;1.00
6098;DHT22;3077;50.922;6.584;2022-08-14T15:41:20;49.80;1.00
6098;DHT22;3077;50.922;6.584;2022-08-14T15:43:46;49.50;1.00
6098;DHT22;3077;50.922;6.584;2022-08-14T15:46:12;49.20;1.00
6098;DHT22;3077;50.922;6.584;2022-08-14T15:48:38;48.30;1.00
6098;DHT22;3077;50.922;6.584;2022-08-14T15:51:04;47.30;1.00
6098;DHT22;3077;50.922;6.584;2022-08-14T15:53:29;46.40;1.00
6098;DHT22;3077;50.922;6.584;2022-08-14T15:55:55;45.30;1.00
6098;DHT22;3077;50.922;6.584;2022-08-14T15:58:23;44.70;1.00
6098;DHT22;3077;50.922;6.584;2022-08-14T16:00:49;44.30;1.00
6098;DHT22;3077;50.922;6.584;2022-08-14T16:03:35;44.50;1.10
6098;DHT22;3077;50.922;6.584;2022-08-14T16:06:05;44.60;1.00
6098;DHT22;3077;50.922;6.584;2022-08-14T16:08:31;44.70;1.00
6098;DHT22;3077;50.922;6.584;2022-08-14T16:10:59;45.00;1.20
6098;DHT22;3077;50.922;6.584;2022-08-14T16:13:24;45.00;1.00
6098;DHT22;3077;50.922;6.584;2022-08-14T16:15:50;44.60;1.00
6098;DHT22;3077;50.922;6.584;2022-08-14T16:18:18;44.10;1.20
6098;DHT22;3077;50.922;6.584;2022-08-14T16:20:45;43.50;1.30
6098;DHT22;3077;50.922;6.584;2022-08-14T16:23:16;43.10;1.80
6098;DHT22;3077;50.922;6.584;2022-08-14T16:25:44;42.80;2.00
6098;DHT22;3077;50.922;6.584;2022-08-14T16:28:41;42.60;2.10